Airfield :
LOGIN :

Register | Disclaimer

   EN    FR    IT 

 










Legend :    VFR   Marginal VFR   IFR   Intensive IFR   Very Intensive IFR
Visi :
Ceiling :
>= 8 km
>= 3000ft
5 to 8 km
1000 to 3000 ft
1500m to 5 km
500 to 1000 ft
800 to 1500m
200 to 500 ft
< 800m
< 200 ft
Symbols :   Thunderstorms  Fog  Heavy snow  Heavy precipitations  Wind > 20 kt
SIGMETs :     Misc.  Thunderstorms  Icing  Turbulence  Mountain Waves  Volcanic Ashes







- Airport Elevation : 1455 ft


ETIH - Hohenfels Army Air Field

CURRENT METAR :
  • 251109Z AUTO 09005KT 9999 BKN025 BKN180 16/10 A3014 RMK AO2 CIG 025V180 BKN025 V FEW SLP210 $

EXPIRED METARs :
  • 251056Z AUTO 07005KT 9999 SCT025 SCT180 15/10 A3015 RMK AO2 SLP214 T01530096 $
  • 250956Z AUTO 00000KT 9999 FEW014 SCT100 SCT210 14/11 A3015 RMK AO2 SLP216 T01410105 $
  • 250901Z AUTO 00000KT 9999 SCT008 12/10 A3016 RMK AO2 SLP219 $
  • 250824Z AUTO 00000KT 9999 BKN007 BKN100 11/10 A3016 RMK AO2 CIG 007V100 BKN007 V FEW SLP219 $

Expired Forecast.
No reported NOTAMs for that airfield.



MET'MAP, your aeronautical weather chart ! - Copyright ORBIFLY December 2007 - Disclaimer

ORBIFLY MET'MAP TEAM :

Programming & Development : Alexandra Zaïnal
Concept & Development : Baudouin d'Aumeries
Co-Development & Prog : Marc-Olivier Méhu
Technical & hardware support : Manuel Goepfert

Contact : metmap@orbifly.com




SOURCES & CREDITS :

   NOAA